Startpagina
METAR-TAF:

METAR-TAF

Vliegvelden :

El Salvador, El Salvador

Luchthaven El Salvador

breedte: 13-26N, lengte: 089-03W, hoogte: 25 m

Actueel weer

Dit bericht is 20 minuten geleden gemaakt, om 22:50 UTC
Wind 8 kt uit het zuidwesten
Temperatuur 31°C
Vochtigheid 59%
Druk 1008 hPa
Zicht 10 km of meer
Weinig wolken op 6300 ft
Heiigheid

METAR: MSLP 212250Z 23008KT 9999 FEW063 31/22 Q1007 A2976 HZ NOSIG

Tijdstip: 17:10 (23:10 UTC)

Verwachting

Dit bericht is 7 uur en het 45 minuten geleden gemaakt, om 15:25 UTC
Verwachting geldig van 21 om 18 UTC tot 22 om 18 UTC
Wind 10 kt uit het zuidzuidwesten
Zicht 10 km of meer
Weinig wolken op 6000 ft
Van 21 om 0000 UTC
Wind 3 kt uit variabele richting
Van 21 om 0400 UTC
Wind 5 kt uit het oostnoordoosten
Zicht 10 km of meer
Gebroken wolken op 7000 ft
Van 21 om 1200 UTC
Zicht 10 km of meer
geen wolken onder 1500 m en geen cumulonimbus

TAF: MSLP 211525Z 2118/2218 20010KT 9999 FEW060 TX35/2118Z TN23/2210Z FM210000 VRB03KT FM210400 06005KT 9999 BKN070 FM211200 CAVOK

Waarnemingen en weersverwachtingen van meer dan 4000 vliegvelden (METAR en TAF).

De beschikbare stations zijn de gele en rode punten op de kaart.

Ga met uw muis naar het station om de naam te zien.

Klik dan om waarnemingen en weersverwachtingen te zien.

kaart wijzigen: klik op de groene knoppen met een zwart kruis om in te zoomen, op de groene knop met een streepje om uit te zoomen of op de groene pijlen voor aangrenzende kaarten.


METAR-TAF: